WCOM7: Spring River, Waco, MO

                                SHEF ID:       WCOM7     Spring R A - Waco MO
STATION TYPE: Stream Gauge
Regulating: Stage = 19.00, Flow = 17743

PRECIP STAGE RIV-FLOW BAT-LOAD
in ft cfs volt
Ccp-Rev Ccp-Rev Ccp-Rev Ccp-Rev
(America/Chicago)
04/24 00:00 0.00 3.40 1169 12.34
04/24 01:00 0.00 3.37 1149 12.36
04/24 02:00 ---- ---- ---- ----
04/24 03:00 ---- 3.46 1210 12.31
04/24 04:00 0.00 3.49 1231 12.32
04/24 05:00 0.00 3.54 1265 12.29
04/24 06:00 0.00 3.55 1272 12.27
04/24 07:00 0.00 3.59 1300 12.11
04/24 08:00 0.00 3.69 1370 12.21
04/24 09:00 0.00 3.75 1411 12.61
04/24 10:00 0.00 3.85 1481 13.03
04/24 11:00 0.00 3.87 1495 12.89
04/24 12:00 0.00 3.95 1553 12.83
04/24 13:00 0.00 4.04 1617 12.70
04/24 14:00 0.00 4.17 1710 12.60
04/24 15:00 0.00 4.22 1746 12.53
04/24 16:00 0.00 4.26 1776 12.53
04/24 17:00 0.00 4.31 1813 12.53
04/24 18:00 0.00 4.24 1761 12.47
04/24 19:00 0.00 4.38 1865 12.45
04/24 20:00 0.00 4.32 1820 12.33
04/24 21:00 0.00 4.47 1932 12.21
04/24 22:00 0.00 4.52 1970 12.20
04/24 23:00 0.00 4.54 1986 12.20
Data processed at Sat 25Apr2026 04:37 GMT

NOTICE: If you are parsing this page

Please convert to using our Data API. Starting early 2026 we will be migrating to: https://water.usace.army.mil with modern pages rendered in JavaScript. When this migration completes you will no longer be able to scrape this page! CWMSDataAPI (CDA)

Timeseries IDs (TSIDs)

TSIDs used from left to right in the data table
WACO.Precip-Inc.Total.1Hour.1Hour.Ccp-Rev
WACO.Stage.Inst.1Hour.0.Ccp-Rev
WACO.Flow.Inst.1Hour.0.Ccp-Rev
WACO.Volt-Battery Load.Inst.1Hour.0.Ccp-Rev

                            

All information presented herein is the property of the government of the United States of America and may be revised or deleted at any time without prior notice. Dissemination of this information without the expressed written consent of the Public Affairs Office, Tulsa District U.S. Army Corps of Engineers is strictly prohibited. These data are gathered electronically and, as presented, have NOT undergone any form of quality control. These data are NOT guaranteed to be valid or correct.